sensor_id;sensor_type;location;lat;lon;timestamp;temperature;humidity
27026;DHT22;14565;48.626;8.978;2023-02-01T00:00:45;2.30;99.90
27026;DHT22;14565;48.626;8.978;2023-02-01T00:03:10;2.30;99.90
27026;DHT22;14565;48.626;8.978;2023-02-01T00:05:38;2.30;99.90
27026;DHT22;14565;48.626;8.978;2023-02-01T00:08:04;2.30;99.90
27026;DHT22;14565;48.626;8.978;2023-02-01T00:10:29;2.30;99.90
27026;DHT22;14565;48.626;8.978;2023-02-01T00:12:55;2.30;99.90
27026;DHT22;14565;48.626;8.978;2023-02-01T00:15:21;2.30;99.90
27026;DHT22;14565;48.626;8.978;2023-02-01T00:17:52;2.30;99.90
27026;DHT22;14565;48.626;8.978;2023-02-01T00:20:18;2.30;99.90
27026;DHT22;14565;48.626;8.978;2023-02-01T00:22:43;2.30;99.90
27026;DHT22;14565;48.626;8.978;2023-02-01T00:25:09;2.40;99.90
27026;DHT22;14565;48.626;8.978;2023-02-01T00:27:34;2.40;99.90
27026;DHT22;14565;48.626;8.978;2023-02-01T00:30:00;2.40;99.90
27026;DHT22;14565;48.626;8.978;2023-02-01T00:32:25;2.30;99.90
27026;DHT22;14565;48.626;8.978;2023-02-01T00:34:51;2.40;99.90
27026;DHT22;14565;48.626;8.978;2023-02-01T00:37:17;2.40;99.90
27026;DHT22;14565;48.626;8.978;2023-02-01T00:39:42;2.30;99.90
27026;DHT22;14565;48.626;8.978;2023-02-01T00:42:08;2.40;99.90
27026;DHT22;14565;48.626;8.978;2023-02-01T00:44:34;2.40;99.90
27026;DHT22;14565;48.626;8.978;2023-02-01T00:47:01;2.30;99.90
27026;DHT22;14565;48.626;8.978;2023-02-01T00:49:27;2.30;99.90
27026;DHT22;14565;48.626;8.978;2023-02-01T00:51:53;2.30;99.90
27026;DHT22;14565;48.626;8.978;2023-02-01T00:54:18;2.30;99.90
27026;DHT22;14565;48.626;8.978;2023-02-01T00:56:44;2.40;99.90
27026;DHT22;14565;48.626;8.978;2023-02-01T00:59:11;2.30;99.90
27026;DHT22;14565;48.626;8.978;2023-02-01T01:01:37;2.30;99.90
27026;DHT22;14565;48.626;8.978;2023-02-01T01:04:03;2.30;99.90
27026;DHT22;14565;48.626;8.978;2023-02-01T01:06:31;2.30;99.90
27026;DHT22;14565;48.626;8.978;2023-02-01T01:08:58;2.30;99.90
27026;DHT22;14565;48.626;8.978;2023-02-01T01:11:30;2.30;99.90
27026;DHT22;14565;48.626;8.978;2023-02-01T01:13:57;2.30;99.90
27026;DHT22;14565;48.626;8.978;2023-02-01T01:16:24;2.40;99.90
27026;DHT22;14565;48.626;8.978;2023-02-01T01:18:51;2.40;99.90
27026;DHT22;14565;48.626;8.978;2023-02-01T01:21:17;2.30;99.90
27026;DHT22;14565;48.626;8.978;2023-02-01T01:23:44;2.40;99.90
27026;DHT22;14565;48.626;8.978;2023-02-01T01:26:15;2.40;99.90
27026;DHT22;14565;48.626;8.978;2023-02-01T01:28:41;2.40;99.90
27026;DHT22;14565;48.626;8.978;2023-02-01T01:31:11;2.40;99.90
27026;DHT22;14565;48.626;8.978;2023-02-01T01:33:37;2.30;99.90
27026;DHT22;14565;48.626;8.978;2023-02-01T01:36:05;2.40;99.90
27026;DHT22;14565;48.626;8.978;2023-02-01T01:38:31;2.40;99.90
27026;DHT22;14565;48.626;8.978;2023-02-01T01:40:56;2.40;99.90
27026;DHT22;14565;48.626;8.978;2023-02-01T01:43:22;2.40;99.90
27026;DHT22;14565;48.626;8.978;2023-02-01T01:45:49;2.40;99.90
27026;DHT22;14565;48.626;8.978;2023-02-01T01:48:27;2.30;99.90
27026;DHT22;14565;48.626;8.978;2023-02-01T01:51:06;2.30;99.90
27026;DHT22;14565;48.626;8.978;2023-02-01T01:53:38;2.40;99.90
27026;DHT22;14565;48.626;8.978;2023-02-01T01:56:06;2.40;99.90
27026;DHT22;14565;48.626;8.978;2023-02-01T01:58:33;2.40;99.90
27026;DHT22;14565;48.626;8.978;2023-02-01T02:00:59;2.40;99.90
27026;DHT22;14565;48.626;8.978;2023-02-01T02:03:34;2.40;99.90
27026;DHT22;14565;48.626;8.978;2023-02-01T02:06:02;2.40;99.90
27026;DHT22;14565;48.626;8.978;2023-02-01T02:08:29;2.40;99.90
27026;DHT22;14565;48.626;8.978;2023-02-01T02:10:55;2.50;99.90
27026;DHT22;14565;48.626;8.978;2023-02-01T02:13:39;2.50;99.90
27026;DHT22;14565;48.626;8.978;2023-02-01T02:22:35;2.50;99.90
27026;DHT22;14565;48.626;8.978;2023-02-01T02:31:33;2.60;99.90
27026;DHT22;14565;48.626;8.978;2023-02-01T02:36:29;2.60;99.90
27026;DHT22;14565;48.626;8.978;2023-02-01T02:42:29;2.60;99.90
27026;DHT22;14565;48.626;8.978;2023-02-01T02:45:27;2.60;99.90
27026;DHT22;14565;48.626;8.978;2023-02-01T02:54:20;2.70;99.90
27026;DHT22;14565;48.626;8.978;2023-02-01T02:57:08;2.70;99.90
27026;DHT22;14565;48.626;8.978;2023-02-01T02:59:55;2.70;99.90
27026;DHT22;14565;48.626;8.978;2023-02-01T03:02:41;2.70;99.90
27026;DHT22;14565;48.626;8.978;2023-02-01T03:05:32;2.70;99.90
27026;DHT22;14565;48.626;8.978;2023-02-01T03:13:40;2.70;99.90
27026;DHT22;14565;48.626;8.978;2023-02-01T03:21:29;2.60;99.90
27026;DHT22;14565;48.626;8.978;2023-02-01T03:23:59;2.60;99.90
27026;DHT22;14565;48.626;8.978;2023-02-01T03:26:29;2.60;99.90
27026;DHT22;14565;48.626;8.978;2023-02-01T03:29:02;2.70;99.90
27026;DHT22;14565;48.626;8.978;2023-02-01T03:31:30;2.60;99.90
27026;DHT22;14565;48.626;8.978;2023-02-01T03:33:57;2.60;99.90
27026;DHT22;14565;48.626;8.978;2023-02-01T03:36:30;2.70;99.90
27026;DHT22;14565;48.626;8.978;2023-02-01T03:39:04;2.70;99.90
27026;DHT22;14565;48.626;8.978;2023-02-01T03:41:51;2.70;99.90
27026;DHT22;14565;48.626;8.978;2023-02-01T03:44:22;2.70;99.90
27026;DHT22;14565;48.626;8.978;2023-02-01T03:52:02;2.70;99.90
27026;DHT22;14565;48.626;8.978;2023-02-01T03:54:31;2.70;99.90
27026;DHT22;14565;48.626;8.978;2023-02-01T03:57:01;2.70;99.90
27026;DHT22;14565;48.626;8.978;2023-02-01T03:59:28;2.70;99.90
27026;DHT22;14565;48.626;8.978;2023-02-01T04:01:54;2.70;99.90
27026;DHT22;14565;48.626;8.978;2023-02-01T04:04:19;2.60;99.90
27026;DHT22;14565;48.626;8.978;2023-02-01T04:06:49;2.70;99.90
27026;DHT22;14565;48.626;8.978;2023-02-01T04:09:16;2.70;99.90
27026;DHT22;14565;48.626;8.978;2023-02-01T04:11:42;2.60;99.90
27026;DHT22;14565;48.626;8.978;2023-02-01T04:14:08;2.70;99.90
27026;DHT22;14565;48.626;8.978;2023-02-01T04:16:34;2.70;99.90
27026;DHT22;14565;48.626;8.978;2023-02-01T04:19:00;2.70;99.90
27026;DHT22;14565;48.626;8.978;2023-02-01T04:21:26;2.70;99.90
27026;DHT22;14565;48.626;8.978;2023-02-01T04:23:53;2.70;99.90
27026;DHT22;14565;48.626;8.978;2023-02-01T04:26:19;2.70;99.90
27026;DHT22;14565;48.626;8.978;2023-02-01T04:28:45;2.70;99.90
27026;DHT22;14565;48.626;8.978;2023-02-01T04:31:14;2.70;99.90
27026;DHT22;14565;48.626;8.978;2023-02-01T04:33:39;2.80;99.90
27026;DHT22;14565;48.626;8.978;2023-02-01T04:36:05;2.70;99.90
27026;DHT22;14565;48.626;8.978;2023-02-01T04:38:31;2.80;99.90
27026;DHT22;14565;48.626;8.978;2023-02-01T04:40:58;2.70;99.90
27026;DHT22;14565;48.626;8.978;2023-02-01T04:43:24;2.70;99.90
27026;DHT22;14565;48.626;8.978;2023-02-01T04:45:51;2.70;99.90
27026;DHT22;14565;48.626;8.978;2023-02-01T04:48:18;2.70;99.90
27026;DHT22;14565;48.626;8.978;2023-02-01T04:50:45;2.70;99.90
27026;DHT22;14565;48.626;8.978;2023-02-01T04:53:14;2.70;99.90
27026;DHT22;14565;48.626;8.978;2023-02-01T04:55:41;2.70;99.90
27026;DHT22;14565;48.626;8.978;2023-02-01T04:58:06;2.70;99.90
27026;DHT22;14565;48.626;8.978;2023-02-01T05:00:32;2.70;99.90
27026;DHT22;14565;48.626;8.978;2023-02-01T05:02:58;2.70;99.90
27026;DHT22;14565;48.626;8.978;2023-02-01T05:05:24;2.70;99.90
27026;DHT22;14565;48.626;8.978;2023-02-01T05:07:49;2.70;99.90
27026;DHT22;14565;48.626;8.978;2023-02-01T05:10:15;2.80;99.90
27026;DHT22;14565;48.626;8.978;2023-02-01T05:12:43;2.70;99.90
27026;DHT22;14565;48.626;8.978;2023-02-01T05:15:28;2.70;99.90
27026;DHT22;14565;48.626;8.978;2023-02-01T05:17:53;2.80;99.90
27026;DHT22;14565;48.626;8.978;2023-02-01T05:20:19;2.70;99.90
27026;DHT22;14565;48.626;8.978;2023-02-01T05:22:45;2.70;99.90
27026;DHT22;14565;48.626;8.978;2023-02-01T05:25:10;2.60;99.90
27026;DHT22;14565;48.626;8.978;2023-02-01T05:27:36;2.70;99.90
27026;DHT22;14565;48.626;8.978;2023-02-01T05:30:04;2.70;99.90
27026;DHT22;14565;48.626;8.978;2023-02-01T05:32:30;2.70;99.90
27026;DHT22;14565;48.626;8.978;2023-02-01T05:34:55;2.70;99.90
27026;DHT22;14565;48.626;8.978;2023-02-01T05:37:21;2.70;99.90
27026;DHT22;14565;48.626;8.978;2023-02-01T05:39:46;2.70;99.90
27026;DHT22;14565;48.626;8.978;2023-02-01T05:42:12;2.70;99.90
27026;DHT22;14565;48.626;8.978;2023-02-01T05:44:38;2.70;99.90
27026;DHT22;14565;48.626;8.978;2023-02-01T05:47:03;2.70;99.90
27026;DHT22;14565;48.626;8.978;2023-02-01T05:49:29;2.70;99.90
27026;DHT22;14565;48.626;8.978;2023-02-01T05:51:55;2.70;99.90
27026;DHT22;14565;48.626;8.978;2023-02-01T05:54:20;2.70;99.90
27026;DHT22;14565;48.626;8.978;2023-02-01T05:56:46;2.80;99.90
27026;DHT22;14565;48.626;8.978;2023-02-01T05:59:11;2.80;99.90
27026;DHT22;14565;48.626;8.978;2023-02-01T06:01:37;2.80;99.90
27026;DHT22;14565;48.626;8.978;2023-02-01T06:04:03;2.80;99.90
27026;DHT22;14565;48.626;8.978;2023-02-01T06:06:28;2.80;99.90
27026;DHT22;14565;48.626;8.978;2023-02-01T06:08:54;2.90;99.90
27026;DHT22;14565;48.626;8.978;2023-02-01T06:11:19;2.90;99.90
27026;DHT22;14565;48.626;8.978;2023-02-01T06:13:45;3.00;99.90
27026;DHT22;14565;48.626;8.978;2023-02-01T06:16:11;2.80;99.90
27026;DHT22;14565;48.626;8.978;2023-02-01T06:18:36;2.90;99.90
27026;DHT22;14565;48.626;8.978;2023-02-01T06:21:03;2.90;99.90
27026;DHT22;14565;48.626;8.978;2023-02-01T06:23:30;2.90;99.90
27026;DHT22;14565;48.626;8.978;2023-02-01T06:26:05;2.90;99.90
27026;DHT22;14565;48.626;8.978;2023-02-01T06:28:32;2.90;99.90
27026;DHT22;14565;48.626;8.978;2023-02-01T06:30:57;2.80;99.90
27026;DHT22;14565;48.626;8.978;2023-02-01T06:33:26;2.90;99.90
27026;DHT22;14565;48.626;8.978;2023-02-01T06:35:59;2.90;99.90
27026;DHT22;14565;48.626;8.978;2023-02-01T06:38:25;2.90;99.90
27026;DHT22;14565;48.626;8.978;2023-02-01T06:40:56;2.90;99.90
27026;DHT22;14565;48.626;8.978;2023-02-01T06:43:23;2.90;99.90
27026;DHT22;14565;48.626;8.978;2023-02-01T06:45:50;2.90;99.90
27026;DHT22;14565;48.626;8.978;2023-02-01T06:48:15;2.90;99.90
27026;DHT22;14565;48.626;8.978;2023-02-01T06:50:41;2.90;99.90
27026;DHT22;14565;48.626;8.978;2023-02-01T06:53:06;2.80;99.90
27026;DHT22;14565;48.626;8.978;2023-02-01T06:55:32;2.80;99.90
27026;DHT22;14565;48.626;8.978;2023-02-01T06:57:58;2.90;99.90
27026;DHT22;14565;48.626;8.978;2023-02-01T07:00:23;2.80;99.90
27026;DHT22;14565;48.626;8.978;2023-02-01T07:02:49;2.80;99.90
27026;DHT22;14565;48.626;8.978;2023-02-01T07:05:15;2.80;99.90
27026;DHT22;14565;48.626;8.978;2023-02-01T07:07:41;2.70;99.90
27026;DHT22;14565;48.626;8.978;2023-02-01T07:10:07;2.80;99.90
27026;DHT22;14565;48.626;8.978;2023-02-01T07:12:33;2.80;99.90
27026;DHT22;14565;48.626;8.978;2023-02-01T07:14:59;2.80;99.90
27026;DHT22;14565;48.626;8.978;2023-02-01T07:17:24;2.80;99.90
27026;DHT22;14565;48.626;8.978;2023-02-01T07:19:50;2.80;99.90
27026;DHT22;14565;48.626;8.978;2023-02-01T07:22:18;2.90;99.90
27026;DHT22;14565;48.626;8.978;2023-02-01T07:24:44;2.90;99.90
27026;DHT22;14565;48.626;8.978;2023-02-01T07:27:09;2.80;99.90
27026;DHT22;14565;48.626;8.978;2023-02-01T07:29:35;2.90;99.90
27026;DHT22;14565;48.626;8.978;2023-02-01T07:32:01;2.90;99.90
27026;DHT22;14565;48.626;8.978;2023-02-01T07:34:28;2.90;99.90
27026;DHT22;14565;48.626;8.978;2023-02-01T07:36:53;3.00;99.90
27026;DHT22;14565;48.626;8.978;2023-02-01T07:39:19;3.00;99.90
27026;DHT22;14565;48.626;8.978;2023-02-01T07:41:45;2.90;99.90
27026;DHT22;14565;48.626;8.978;2023-02-01T07:44:11;3.00;99.90
27026;DHT22;14565;48.626;8.978;2023-02-01T07:46:37;3.00;99.90
27026;DHT22;14565;48.626;8.978;2023-02-01T07:49:05;3.00;99.90
27026;DHT22;14565;48.626;8.978;2023-02-01T07:51:31;3.00;99.90
27026;DHT22;14565;48.626;8.978;2023-02-01T07:53:56;3.10;99.90
27026;DHT22;14565;48.626;8.978;2023-02-01T07:56:22;3.00;99.90
27026;DHT22;14565;48.626;8.978;2023-02-01T07:58:53;3.00;99.90
27026;DHT22;14565;48.626;8.978;2023-02-01T08:01:25;3.10;99.90
27026;DHT22;14565;48.626;8.978;2023-02-01T08:03:58;3.10;99.90
27026;DHT22;14565;48.626;8.978;2023-02-01T08:06:25;3.10;99.90
27026;DHT22;14565;48.626;8.978;2023-02-01T08:08:52;3.10;99.90
27026;DHT22;14565;48.626;8.978;2023-02-01T08:11:19;3.10;99.90
27026;DHT22;14565;48.626;8.978;2023-02-01T08:13:45;3.10;99.90
27026;DHT22;14565;48.626;8.978;2023-02-01T08:16:12;3.10;99.90
27026;DHT22;14565;48.626;8.978;2023-02-01T08:18:39;3.10;99.90
27026;DHT22;14565;48.626;8.978;2023-02-01T08:21:10;3.10;99.90
27026;DHT22;14565;48.626;8.978;2023-02-01T08:23:37;3.10;99.90
27026;DHT22;14565;48.626;8.978;2023-02-01T08:28:33;3.20;99.90
27026;DHT22;14565;48.626;8.978;2023-02-01T08:30:59;3.20;99.90
27026;DHT22;14565;48.626;8.978;2023-02-01T08:33:25;3.20;99.90
27026;DHT22;14565;48.626;8.978;2023-02-01T08:35:50;3.30;99.90
27026;DHT22;14565;48.626;8.978;2023-02-01T08:38:16;3.30;99.90
27026;DHT22;14565;48.626;8.978;2023-02-01T08:40:41;3.40;99.90
27026;DHT22;14565;48.626;8.978;2023-02-01T08:43:07;3.40;99.90
27026;DHT22;14565;48.626;8.978;2023-02-01T08:45:33;3.40;99.90
27026;DHT22;14565;48.626;8.978;2023-02-01T08:47:59;3.40;99.90
27026;DHT22;14565;48.626;8.978;2023-02-01T08:50:25;3.40;99.90
27026;DHT22;14565;48.626;8.978;2023-02-01T08:52:52;3.40;99.90
27026;DHT22;14565;48.626;8.978;2023-02-01T08:55:17;3.40;99.90
27026;DHT22;14565;48.626;8.978;2023-02-01T08:57:43;3.40;99.90
27026;DHT22;14565;48.626;8.978;2023-02-01T09:00:13;3.40;99.90
27026;DHT22;14565;48.626;8.978;2023-02-01T09:02:39;3.40;99.90
27026;DHT22;14565;48.626;8.978;2023-02-01T09:05:05;3.40;99.90
27026;DHT22;14565;48.626;8.978;2023-02-01T09:07:32;3.30;99.90
27026;DHT22;14565;48.626;8.978;2023-02-01T09:09:58;3.30;99.90
27026;DHT22;14565;48.626;8.978;2023-02-01T09:12:29;3.30;99.90
27026;DHT22;14565;48.626;8.978;2023-02-01T09:14:56;3.30;99.90
27026;DHT22;14565;48.626;8.978;2023-02-01T09:17:22;3.30;99.90
27026;DHT22;14565;48.626;8.978;2023-02-01T09:19:48;3.30;99.90
27026;DHT22;14565;48.626;8.978;2023-02-01T09:22:15;3.30;99.90
27026;DHT22;14565;48.626;8.978;2023-02-01T09:24:41;3.30;99.90
27026;DHT22;14565;48.626;8.978;2023-02-01T09:27:07;3.30;99.90
27026;DHT22;14565;48.626;8.978;2023-02-01T09:29:32;3.30;99.90
27026;DHT22;14565;48.626;8.978;2023-02-01T09:31:58;3.30;99.90
27026;DHT22;14565;48.626;8.978;2023-02-01T09:34:24;3.30;99.90
27026;DHT22;14565;48.626;8.978;2023-02-01T09:36:50;3.40;99.90
27026;DHT22;14565;48.626;8.978;2023-02-01T09:39:15;3.40;99.90
27026;DHT22;14565;48.626;8.978;2023-02-01T09:41:44;3.40;99.90
27026;DHT22;14565;48.626;8.978;2023-02-01T09:46:58;3.40;99.90
27026;DHT22;14565;48.626;8.978;2023-02-01T09:49:32;3.50;99.90
27026;DHT22;14565;48.626;8.978;2023-02-01T09:52:01;3.60;99.90
27026;DHT22;14565;48.626;8.978;2023-02-01T09:57:11;3.50;99.90
27026;DHT22;14565;48.626;8.978;2023-02-01T09:59:41;3.60;99.90
27026;DHT22;14565;48.626;8.978;2023-02-01T10:02:21;3.70;99.90
27026;DHT22;14565;48.626;8.978;2023-02-01T10:04:47;3.70;99.90
27026;DHT22;14565;48.626;8.978;2023-02-01T10:13:01;4.10;99.90
27026;DHT22;14565;48.626;8.978;2023-02-01T10:18:34;4.30;99.90
27026;DHT22;14565;48.626;8.978;2023-02-01T10:26:26;4.80;99.90
27026;DHT22;14565;48.626;8.978;2023-02-01T10:29:01;4.90;99.90
27026;DHT22;14565;48.626;8.978;2023-02-01T10:31:35;4.90;99.90
27026;DHT22;14565;48.626;8.978;2023-02-01T10:34:28;4.90;99.90
27026;DHT22;14565;48.626;8.978;2023-02-01T10:39:45;4.90;99.90
27026;DHT22;14565;48.626;8.978;2023-02-01T10:42:11;4.90;99.90
27026;DHT22;14565;48.626;8.978;2023-02-01T10:44:42;4.80;99.90
27026;DHT22;14565;48.626;8.978;2023-02-01T10:47:10;4.70;99.90
27026;DHT22;14565;48.626;8.978;2023-02-01T10:49:41;4.60;99.90
27026;DHT22;14565;48.626;8.978;2023-02-01T10:52:40;4.70;99.90
27026;DHT22;14565;48.626;8.978;2023-02-01T10:55:39;4.60;99.90
27026;DHT22;14565;48.626;8.978;2023-02-01T10:58:19;4.70;99.90
27026;DHT22;14565;48.626;8.978;2023-02-01T11:01:07;4.70;99.90
27026;DHT22;14565;48.626;8.978;2023-02-01T11:03:34;4.80;99.90
27026;DHT22;14565;48.626;8.978;2023-02-01T11:06:11;4.70;99.90
27026;DHT22;14565;48.626;8.978;2023-02-01T11:08:49;4.60;99.90
27026;DHT22;14565;48.626;8.978;2023-02-01T11:11:15;4.60;99.90
27026;DHT22;14565;48.626;8.978;2023-02-01T11:13:41;4.60;99.90
27026;DHT22;14565;48.626;8.978;2023-02-01T11:16:11;4.60;99.90
27026;DHT22;14565;48.626;8.978;2023-02-01T11:18:38;4.60;99.90
27026;DHT22;14565;48.626;8.978;2023-02-01T11:21:06;4.50;99.90
27026;DHT22;14565;48.626;8.978;2023-02-01T11:23:32;4.50;99.90
27026;DHT22;14565;48.626;8.978;2023-02-01T11:26:07;4.40;99.90
27026;DHT22;14565;48.626;8.978;2023-02-01T11:28:37;4.50;99.90
27026;DHT22;14565;48.626;8.978;2023-02-01T11:31:07;4.50;99.90
27026;DHT22;14565;48.626;8.978;2023-02-01T11:33:36;4.60;99.90
27026;DHT22;14565;48.626;8.978;2023-02-01T11:36:13;4.60;99.90
27026;DHT22;14565;48.626;8.978;2023-02-01T11:38:46;4.60;99.90
27026;DHT22;14565;48.626;8.978;2023-02-01T11:41:25;4.70;99.90
27026;DHT22;14565;48.626;8.978;2023-02-01T11:46:23;4.90;99.90
27026;DHT22;14565;48.626;8.978;2023-02-01T12:00:29;4.60;99.90
27026;DHT22;14565;48.626;8.978;2023-02-01T12:12:08;4.50;99.90
27026;DHT22;14565;48.626;8.978;2023-02-01T12:26:40;4.50;99.90
27026;DHT22;14565;48.626;8.978;2023-02-01T12:36:48;4.50;99.90
27026;DHT22;14565;48.626;8.978;2023-02-01T12:39:31;4.40;99.90
27026;DHT22;14565;48.626;8.978;2023-02-01T12:47:26;4.50;99.90
27026;DHT22;14565;48.626;8.978;2023-02-01T12:52:32;4.50;99.90
27026;DHT22;14565;48.626;8.978;2023-02-01T12:57:46;4.50;99.90
27026;DHT22;14565;48.626;8.978;2023-02-01T13:06:02;4.50;99.90
27026;DHT22;14565;48.626;8.978;2023-02-01T13:08:31;4.50;99.90
27026;DHT22;14565;48.626;8.978;2023-02-01T13:14:00;4.40;99.90
27026;DHT22;14565;48.626;8.978;2023-02-01T13:16:48;4.40;99.90
27026;DHT22;14565;48.626;8.978;2023-02-01T13:22:47;4.40;99.90
27026;DHT22;14565;48.626;8.978;2023-02-01T13:25:43;4.50;99.90
27026;DHT22;14565;48.626;8.978;2023-02-01T13:28:23;4.50;99.90
27026;DHT22;14565;48.626;8.978;2023-02-01T13:33:39;4.40;99.90
27026;DHT22;14565;48.626;8.978;2023-02-01T13:36:16;4.30;99.90
27026;DHT22;14565;48.626;8.978;2023-02-01T13:39:14;4.30;99.90
27026;DHT22;14565;48.626;8.978;2023-02-01T13:41:51;4.30;99.90
27026;DHT22;14565;48.626;8.978;2023-02-01T13:44:40;4.30;99.90
27026;DHT22;14565;48.626;8.978;2023-02-01T13:49:42;4.30;99.90
27026;DHT22;14565;48.626;8.978;2023-02-01T13:55:43;4.50;99.90
27026;DHT22;14565;48.626;8.978;2023-02-01T13:57:58;4.60;99.90
27026;DHT22;14565;48.626;8.978;2023-02-01T14:00:38;4.70;99.90
27026;DHT22;14565;48.626;8.978;2023-02-01T14:10:55;4.70;99.90
27026;DHT22;14565;48.626;8.978;2023-02-01T14:13:28;4.60;99.90
27026;DHT22;14565;48.626;8.978;2023-02-01T14:23:45;4.60;99.90
27026;DHT22;14565;48.626;8.978;2023-02-01T14:26:59;4.60;99.90
27026;DHT22;14565;48.626;8.978;2023-02-01T14:34:31;4.60;99.90
27026;DHT22;14565;48.626;8.978;2023-02-01T14:36:58;4.50;99.90
27026;DHT22;14565;48.626;8.978;2023-02-01T14:39:35;4.60;99.90
27026;DHT22;14565;48.626;8.978;2023-02-01T14:42:15;4.60;99.90
27026;DHT22;14565;48.626;8.978;2023-02-01T14:44:43;4.50;99.90
27026;DHT22;14565;48.626;8.978;2023-02-01T14:52:18;4.50;99.90
27026;DHT22;14565;48.626;8.978;2023-02-01T14:54:53;4.50;99.90
27026;DHT22;14565;48.626;8.978;2023-02-01T14:57:21;4.50;99.90
27026;DHT22;14565;48.626;8.978;2023-02-01T14:59:49;4.50;99.90
27026;DHT22;14565;48.626;8.978;2023-02-01T15:02:23;4.60;99.90
27026;DHT22;14565;48.626;8.978;2023-02-01T15:04:56;4.60;99.90
27026;DHT22;14565;48.626;8.978;2023-02-01T15:07:25;4.60;99.90
27026;DHT22;14565;48.626;8.978;2023-02-01T15:09:52;4.60;99.90
27026;DHT22;14565;48.626;8.978;2023-02-01T15:12:25;4.50;99.90
27026;DHT22;14565;48.626;8.978;2023-02-01T15:17:36;4.60;99.90
27026;DHT22;14565;48.626;8.978;2023-02-01T15:20:15;4.50;99.90
27026;DHT22;14565;48.626;8.978;2023-02-01T15:22:42;4.50;99.90
27026;DHT22;14565;48.626;8.978;2023-02-01T15:25:22;4.40;99.90
27026;DHT22;14565;48.626;8.978;2023-02-01T15:27:48;4.50;99.90
27026;DHT22;14565;48.626;8.978;2023-02-01T15:30:22;4.40;99.90
27026;DHT22;14565;48.626;8.978;2023-02-01T15:32:49;4.40;99.90
27026;DHT22;14565;48.626;8.978;2023-02-01T15:38:46;4.30;99.90
27026;DHT22;14565;48.626;8.978;2023-02-01T15:43:44;4.30;99.90
27026;DHT22;14565;48.626;8.978;2023-02-01T15:46:16;4.20;99.90
27026;DHT22;14565;48.626;8.978;2023-02-01T15:48:49;4.20;99.90
27026;DHT22;14565;48.626;8.978;2023-02-01T15:51:19;4.20;99.90
27026;DHT22;14565;48.626;8.978;2023-02-01T15:53:55;4.20;99.90
27026;DHT22;14565;48.626;8.978;2023-02-01T15:56:24;4.20;99.90
27026;DHT22;14565;48.626;8.978;2023-02-01T15:59:00;4.20;99.90
27026;DHT22;14565;48.626;8.978;2023-02-01T16:01:27;4.20;99.90
27026;DHT22;14565;48.626;8.978;2023-02-01T16:04:12;4.20;99.90
27026;DHT22;14565;48.626;8.978;2023-02-01T16:06:46;4.20;99.90
27026;DHT22;14565;48.626;8.978;2023-02-01T16:09:15;4.20;99.90
27026;DHT22;14565;48.626;8.978;2023-02-01T16:14:23;4.20;99.90
27026;DHT22;14565;48.626;8.978;2023-02-01T16:16:50;4.20;99.90
27026;DHT22;14565;48.626;8.978;2023-02-01T16:19:16;4.20;99.90
27026;DHT22;14565;48.626;8.978;2023-02-01T16:21:41;4.10;99.90
27026;DHT22;14565;48.626;8.978;2023-02-01T16:24:07;4.00;99.90
27026;DHT22;14565;48.626;8.978;2023-02-01T16:26:34;4.00;99.90
27026;DHT22;14565;48.626;8.978;2023-02-01T16:29:00;4.00;99.90
27026;DHT22;14565;48.626;8.978;2023-02-01T16:31:35;4.00;99.90
27026;DHT22;14565;48.626;8.978;2023-02-01T16:34:02;4.00;99.90
27026;DHT22;14565;48.626;8.978;2023-02-01T16:36:28;4.00;99.90
27026;DHT22;14565;48.626;8.978;2023-02-01T16:38:54;3.90;99.90
27026;DHT22;14565;48.626;8.978;2023-02-01T16:41:22;3.90;99.90
27026;DHT22;14565;48.626;8.978;2023-02-01T16:43:53;3.90;99.90
27026;DHT22;14565;48.626;8.978;2023-02-01T16:46:25;3.80;99.90
27026;DHT22;14565;48.626;8.978;2023-02-01T16:48:57;3.90;99.90
27026;DHT22;14565;48.626;8.978;2023-02-01T16:51:27;3.80;99.90
27026;DHT22;14565;48.626;8.978;2023-02-01T16:53:53;3.80;99.90
27026;DHT22;14565;48.626;8.978;2023-02-01T16:56:27;3.80;99.90
27026;DHT22;14565;48.626;8.978;2023-02-01T16:58:54;3.80;99.90
27026;DHT22;14565;48.626;8.978;2023-02-01T17:01:20;3.80;99.90
27026;DHT22;14565;48.626;8.978;2023-02-01T17:03:46;3.70;99.90
27026;DHT22;14565;48.626;8.978;2023-02-01T17:06:15;3.80;99.90
27026;DHT22;14565;48.626;8.978;2023-02-01T17:08:45;3.70;99.90
27026;DHT22;14565;48.626;8.978;2023-02-01T17:11:12;3.80;99.90
27026;DHT22;14565;48.626;8.978;2023-02-01T17:13:39;3.90;99.90
27026;DHT22;14565;48.626;8.978;2023-02-01T17:16:30;3.80;99.90
27026;DHT22;14565;48.626;8.978;2023-02-01T17:19:06;4.00;99.90
27026;DHT22;14565;48.626;8.978;2023-02-01T17:21:41;4.00;99.90
27026;DHT22;14565;48.626;8.978;2023-02-01T17:24:12;4.00;99.90
27026;DHT22;14565;48.626;8.978;2023-02-01T17:26:38;3.90;99.90
27026;DHT22;14565;48.626;8.978;2023-02-01T17:29:04;3.90;99.90
27026;DHT22;14565;48.626;8.978;2023-02-01T17:31:30;3.90;99.90
27026;DHT22;14565;48.626;8.978;2023-02-01T17:33:56;3.80;99.90
27026;DHT22;14565;48.626;8.978;2023-02-01T17:36:21;3.80;99.90
27026;DHT22;14565;48.626;8.978;2023-02-01T17:38:47;3.80;99.90
27026;DHT22;14565;48.626;8.978;2023-02-01T17:41:13;3.80;99.90
27026;DHT22;14565;48.626;8.978;2023-02-01T17:43:39;3.70;99.90
27026;DHT22;14565;48.626;8.978;2023-02-01T17:46:14;3.80;99.90
27026;DHT22;14565;48.626;8.978;2023-02-01T17:48:40;3.80;99.90
27026;DHT22;14565;48.626;8.978;2023-02-01T17:51:18;3.90;99.90
27026;DHT22;14565;48.626;8.978;2023-02-01T17:53:44;3.90;99.90
27026;DHT22;14565;48.626;8.978;2023-02-01T17:56:30;3.90;99.90
27026;DHT22;14565;48.626;8.978;2023-02-01T17:58:56;3.80;99.90
27026;DHT22;14565;48.626;8.978;2023-02-01T18:01:23;3.80;99.90
27026;DHT22;14565;48.626;8.978;2023-02-01T18:03:50;3.70;99.90
27026;DHT22;14565;48.626;8.978;2023-02-01T18:06:19;3.50;99.90
27026;DHT22;14565;48.626;8.978;2023-02-01T18:08:45;3.40;99.90
27026;DHT22;14565;48.626;8.978;2023-02-01T18:11:14;3.60;99.90
27026;DHT22;14565;48.626;8.978;2023-02-01T18:13:40;3.60;99.90
27026;DHT22;14565;48.626;8.978;2023-02-01T18:16:08;3.70;99.90
27026;DHT22;14565;48.626;8.978;2023-02-01T18:18:37;3.70;99.90
27026;DHT22;14565;48.626;8.978;2023-02-01T18:21:03;3.70;99.90
27026;DHT22;14565;48.626;8.978;2023-02-01T18:23:29;3.80;99.90
27026;DHT22;14565;48.626;8.978;2023-02-01T18:25:55;3.80;99.90
27026;DHT22;14565;48.626;8.978;2023-02-01T18:28:20;3.80;99.90
27026;DHT22;14565;48.626;8.978;2023-02-01T18:30:48;3.90;99.90
27026;DHT22;14565;48.626;8.978;2023-02-01T18:33:18;3.80;99.90
27026;DHT22;14565;48.626;8.978;2023-02-01T18:35:45;3.80;99.90
27026;DHT22;14565;48.626;8.978;2023-02-01T18:38:10;3.80;99.90
27026;DHT22;14565;48.626;8.978;2023-02-01T18:43:14;3.80;99.90
27026;DHT22;14565;48.626;8.978;2023-02-01T18:45:41;3.80;99.90
27026;DHT22;14565;48.626;8.978;2023-02-01T18:48:10;3.80;99.90
27026;DHT22;14565;48.626;8.978;2023-02-01T18:50:38;3.90;99.90
27026;DHT22;14565;48.626;8.978;2023-02-01T18:53:07;3.80;99.90
27026;DHT22;14565;48.626;8.978;2023-02-01T18:55:34;3.90;99.90
27026;DHT22;14565;48.626;8.978;2023-02-01T18:58:03;3.90;99.90